Monday, December 18, 2017, 10:41 AM CST
Back to Local

KDHT, Dalhart Municipal Airport

Location: Dalhart, TX, United States Lat: 36.017
Local Time: 10:41 AM CST (16:41 GMT) Lon: -102.55
Time Zone: US/Central Elev: 3989 ft

Show me the last for .
Show Decoded

2017-12-18 09:53 METAR KDHT 181553Z AUTO 26008KT 10SM CLR 06/M02 A3010 RMK AO2 SLP196 T00611022 =
2017-12-18 08:53 METAR KDHT 181453Z AUTO 23006KT 7SM CLR M03/M05 A3010 RMK AO2 SLP208 T10281050
                 53018 =
2017-12-18 07:53 METAR KDHT 181353Z AUTO VRB03KT 9SM CLR M04/M07 A3006 RMK AO2 SLP198 T10391067 =
2017-12-18 06:53 METAR KDHT 181253Z AUTO 33003KT 8SM CLR M04/M08 A3007 RMK AO2 SLP198 T10441078 =
2017-12-18 05:53 METAR KDHT 181153Z AUTO 26005KT 10SM CLR M05/M07 A3004 RMK AO2 SLP185 T10501072
                 11028 21072 55003 =
2017-12-18 04:53 METAR KDHT 181053Z AUTO 25005KT 10SM CLR M06/M08 A3002 RMK AO2 SLP172 T10611078
                 =
2017-12-18 03:53 METAR KDHT 180953Z AUTO 24006KT 9SM CLR M06/M08 A3004 RMK AO2 SLP176 T10561078 =
2017-12-18 02:53 METAR KDHT 180853Z AUTO 20003KT 8SM CLR M06/M08 A3005 RMK AO2 SLP180 T10561078
                 53001 =
2017-12-18 01:53 METAR KDHT 180753Z AUTO 29004KT 9SM CLR M04/M07 A3005 RMK AO2 SLP179 T10441072 =
2017-12-18 00:53 METAR KDHT 180653Z AUTO 25004KT 6SM HZ CLR M04/M07 A3004 RMK AO2 SLP179
                 T10441072 =
2017-12-17 23:53 METAR KDHT 180553Z AUTO 24006KT 7SM CLR M03/M06 A3004 RMK AO2 SLP178 T10331056
                 10028 21050 400941050 50001 =
2017-12-17 22:53 METAR KDHT 180453Z AUTO 27005KT 9SM CLR M05/M07 A3005 RMK AO2 SLP187 T10501072 =
2017-12-17 21:53 METAR KDHT 180353Z AUTO 31005KT 10SM CLR M02/M06 A3005 RMK AO2 SLP185 T10221056
                 =
2017-12-17 20:53 METAR KDHT 180253Z AUTO 00000KT 10SM CLR M01/M04 A3004 RMK AO2 SLP180 T10061044
                 53007 =
2017-12-17 19:53 METAR KDHT 180153Z AUTO 16006KT 10SM CLR M01/M05 A3002 RMK AO2 SLP179 T10111050
                 =
2017-12-17 18:53 METAR KDHT 180053Z AUTO 14008KT 10SM CLR 01/M04 A3002 RMK AO2 SLP175 T00061039 =
2017-12-17 17:53 METAR KDHT 172353Z AUTO 13008KT 10SM CLR 03/M04 A3001 RMK AO2 SLP170 T00281044
                 10094 20028 51011 =
2017-12-17 16:53 METAR KDHT 172253Z AUTO VRB03KT 10SM CLR 08/M03 A3001 RMK AO2 SLP159 T00831028 =
2017-12-17 15:53 METAR KDHT 172153Z AUTO 00000KT 10SM CLR 09/M03 A2999 RMK AO2 SLP152 T00891033 =
2017-12-17 14:53 METAR KDHT 172053Z AUTO 02007KT 10SM CLR 09/M03 A2998 RMK AO2 SLP145 T00891028
                 56017 =
2017-12-17 13:53 METAR KDHT 171953Z AUTO 03012KT 10SM CLR 08/M03 A2999 RMK AO2 SLP154 T00781028 =
2017-12-17 12:53 METAR KDHT 171853Z AUTO 01014KT 10SM CLR 07/M03 A3000 RMK AO2 SLP161 T00721028 =
2017-12-17 11:53 METAR KDHT 171753Z AUTO 36014G21KT 10SM CLR 06/M03 A3003 RMK AO2 SLP174
                 T00611028 10061 21011 50013 =
2017-12-17 10:53 METAR KDHT 171653Z AUTO 36016KT 10SM CLR 04/M02 A3004 RMK AO2 SLP173 T00441022 =

Support USWX by starting your Amazon purchase here.